Time;durP1;ratioP1;P1;durP2;ratioP2;P2;SDS_P1;SDS_P2;PMS_P1;PMS_P2;Temp;Humidity;BMP_temperature;BMP_pressure;BME280_temperature;BME280_humidity;BME280_pressure;Samples;Min_cycle;Max_cycle;Signal;HPM_P1;HPM_P2
2021/09/04 00:01:12;;;;;;;22.83;12.45;;;14.80;99.90;;;;;;4849166;29;20187;-96
2021/09/04 00:03:40;;;;;;;20.73;11.88;;;15.40;99.90;;;;;;4836512;29;20173;-92
2021/09/04 00:06:07;;;;;;;22.33;12.63;;;15.10;99.90;;;;;;4839965;29;20223;-96
2021/09/04 00:08:33;;;;;;;19.98;12.25;;;15.10;99.90;;;;;;4830599;29;20183;-92
2021/09/04 00:10:59;;;;;;;23.60;12.40;;;;;;;;;;4832320;29;20599;-96
2021/09/04 00:13:25;;;;;;;20.27;12.80;;;15.10;99.90;;;;;;4831870;29;20274;-96
2021/09/04 00:15:50;;;;;;;21.25;12.00;;;15.20;99.90;;;;;;4816216;29;20226;-94
2021/09/04 00:18:16;;;;;;;21.30;11.85;;;15.00;99.90;;;;;;4828766;29;20539;-94
2021/09/04 00:20:42;;;;;;;26.00;12.80;;;15.00;99.90;;;;;;4814385;29;20672;-95
2021/09/04 00:23:07;;;;;;;21.48;12.02;;;15.00;99.90;;;;;;4812275;29;20191;-94
2021/09/04 00:25:33;;;;;;;28.05;12.00;;;15.00;99.90;;;;;;4827535;29;20222;-95
2021/09/04 00:27:59;;;;;;;20.30;12.27;;;15.00;99.90;;;;;;4827015;29;20222;-95
2021/09/04 00:30:25;;;;;;;22.13;12.45;;;15.00;99.90;;;;;;4827572;29;20191;-94
2021/09/04 00:32:50;;;;;;;19.23;12.25;;;15.00;99.90;;;;;;4812138;29;20557;-95
2021/09/04 00:35:17;;;;;;;20.30;12.30;;;;;;;;;;4827960;29;20224;-95
2021/09/04 00:37:43;;;;;;;23.08;12.10;;;14.90;99.90;;;;;;4827283;29;20646;-95
2021/09/04 00:40:09;;;;;;;20.13;11.60;;;14.90;99.90;;;;;;4827824;29;20220;-95
2021/09/04 00:42:35;;;;;;;19.67;12.48;;;14.80;99.90;;;;;;4843872;29;20258;-96
2021/09/04 00:45:01;;;;;;;18.70;11.20;;;14.80;99.90;;;;;;4827641;29;20322;-96
2021/09/04 00:47:27;;;;;;;16.70;11.27;;;14.80;99.90;;;;;;4827666;29;20199;-96
2021/09/04 00:49:52;;;;;;;22.00;12.13;;;14.80;99.90;;;;;;4843727;29;20728;-94
2021/09/04 00:52:18;;;;;;;21.95;11.30;;;14.70;99.90;;;;;;4844990;29;20219;-95
2021/09/04 00:54:45;;;;;;;17.50;11.23;;;14.70;99.90;;;;;;4813024;29;20183;-94
2021/09/04 00:57:11;;;;;;;16.20;10.70;;;14.70;99.90;;;;;;4813216;29;20198;-95
2021/09/04 00:59:37;;;;;;;20.90;11.13;;;14.70;99.90;;;;;;4828790;29;20179;-95
2021/09/04 01:02:02;;;;;;;16.35;10.35;;;14.70;99.90;;;;;;4827578;29;20191;-94
2021/09/04 01:04:29;;;;;;;17.98;10.48;;;;;;;;;;4828744;29;20183;-96
2021/09/04 01:06:56;;;;;;;16.05;10.30;;;14.60;99.90;;;;;;4814225;29;20226;-95
2021/09/04 01:09:22;;;;;;;20.17;11.20;;;14.50;99.90;;;;;;4827518;29;20191;-94
2021/09/04 01:11:48;;;;;;;21.38;11.43;;;14.60;99.90;;;;;;4827327;29;20773;-95
2021/09/04 01:14:14;;;;;;;29.65;10.63;;;;;;;;;;4824554;29;20308;-94
2021/09/04 01:16:42;;;;;;;16.75;9.63;;;14.50;99.90;;;;;;4854705;29;20177;-95
2021/09/04 01:19:09;;;;;;;22.05;9.60;;;14.50;99.90;;;;;;4829832;29;20183;-96
2021/09/04 01:21:36;;;;;;;17.38;9.38;;;14.40;99.90;;;;;;4813690;29;20203;-96
2021/09/04 01:24:04;;;;;;;16.17;8.73;;;14.30;99.90;;;;;;4832032;29;20211;-96
2021/09/04 01:26:30;;;;;;;18.73;8.35;;;14.60;99.90;;;;;;4850080;29;20698;-95
2021/09/04 01:28:57;;;;;;;18.30;10.00;;;14.60;99.90;;;;;;4833630;29;20187;-96
2021/09/04 01:31:26;;;;;;;17.10;9.18;;;14.30;99.90;;;;;;4831745;29;20214;-95
2021/09/04 01:33:52;;;;;;;17.10;8.93;;;14.20;99.90;;;;;;4832425;29;20348;-95
2021/09/04 01:36:27;;;;;;;19.40;9.45;;;14.10;99.90;;;;;;4833793;29;20641;-95
2021/09/04 01:38:52;;;;;;;17.63;9.38;;;14.10;99.90;;;;;;4833312;29;20656;-95
2021/09/04 01:41:18;;;;;;;17.63;10.32;;;14.00;99.90;;;;;;4854831;29;20195;-95
2021/09/04 01:43:43;;;;;;;17.55;9.85;;;14.00;99.90;;;;;;4808891;29;20190;-96
2021/09/04 01:46:09;;;;;;;21.35;9.52;;;14.00;99.90;;;;;;4818928;29;20239;-96
2021/09/04 01:48:35;;;;;;;15.60;9.75;;;;;;;;;;4815467;29;20278;-96
2021/09/04 01:51:01;;;;;;;14.65;9.23;;;13.80;99.90;;;;;;4815169;29;20192;-95
2021/09/04 01:53:27;;;;;;;22.88;10.52;;;;;;;;;;4846835;29;20175;-95
2021/09/04 01:55:53;;;;;;;17.83;9.82;;;13.70;99.90;;;;;;4830090;29;20199;-95
2021/09/04 01:58:19;;;;;;;19.00;10.23;;;;;;;;;;4815298;29;20706;-95
2021/09/04 02:00:44;;;;;;;21.52;10.65;;;13.60;99.90;;;;;;4830352;29;20223;-95
2021/09/04 02:03:10;;;;;;;18.67;10.57;;;;;;;;;;4814920;29;20238;-94
2021/09/04 02:05:36;;;;;;;17.70;10.70;;;13.50;99.90;;;;;;4830484;29;20215;-96
2021/09/04 02:08:02;;;;;;;22.90;10.40;;;13.40;99.90;;;;;;4814882;29;20315;-96
2021/09/04 02:10:28;;;;;;;19.85;10.10;;;;;;;;;;4815037;29;20195;-96
2021/09/04 02:12:54;;;;;;;19.42;10.13;;;13.30;99.90;;;;;;4829908;29;20637;-96
2021/09/04 02:15:20;;;;;;;22.77;11.35;;;13.30;99.90;;;;;;4815050;29;20183;-96
2021/09/04 02:17:45;;;;;;;21.33;11.65;;;13.70;99.90;;;;;;4830104;29;20247;-96
2021/09/04 02:20:12;;;;;;;18.52;11.27;;;13.20;99.90;;;;;;4829833;29;20266;-95
2021/09/04 02:22:37;;;;;;;20.80;11.20;;;13.20;99.90;;;;;;4846032;29;20192;-96
2021/09/04 02:25:04;;;;;;;21.80;11.55;;;13.20;99.90;;;;;;4814464;29;20203;-95
2021/09/04 02:27:30;;;;;;;20.73;10.90;;;13.10;99.90;;;;;;4829839;29;20287;-96
2021/09/04 02:29:56;;;;;;;18.98;11.38;;;13.10;99.90;;;;;;4814441;29;20179;-96
2021/09/04 02:32:21;;;;;;;20.60;11.65;;;13.40;99.90;;;;;;4829411;29;20222;-96
2021/09/04 02:34:47;;;;;;;19.45;11.68;;;13.10;99.90;;;;;;4829770;29;20548;-95
2021/09/04 02:37:13;;;;;;;21.75;11.50;;;;;;;;;;4814217;29;20722;-95
2021/09/04 02:39:39;;;;;;;21.77;10.98;;;13.10;99.90;;;;;;4814932;29;20220;-95
2021/09/04 02:42:05;;;;;;;24.15;10.55;;;;;;;;;;4829062;29;20183;-95
2021/09/04 02:44:31;;;;;;;26.30;11.45;;;13.10;99.90;;;;;;4845737;29;20288;-95
2021/09/04 02:46:56;;;;;;;17.30;10.45;;;13.20;99.90;;;;;;4829848;29;20212;-92
2021/09/04 02:49:22;;;;;;;17.52;10.50;;;13.80;99.90;;;;;;4799375;29;20637;-95
2021/09/04 02:51:48;;;;;;;17.90;9.68;;;;;;;;;;4829479;29;20191;-95
2021/09/04 02:54:14;;;;;;;16.13;9.32;;;13.10;99.90;;;;;;4828788;29;20191;-95
2021/09/04 02:56:40;;;;;;;19.60;10.10;;;;;;;;;;4829328;29;20187;-96
2021/09/04 02:59:05;;;;;;;16.98;8.43;;;13.10;99.90;;;;;;4828846;29;20267;-95
2021/09/04 03:01:31;;;;;;;19.38;8.30;;;;;;;;;;4845733;29;20207;-95
2021/09/04 03:03:57;;;;;;;13.85;8.10;;;13.00;99.90;;;;;;4845289;29;20195;-96
2021/09/04 03:06:23;;;;;;;12.55;7.07;;;;;;;;;;4828616;29;20211;-96
2021/09/04 03:08:50;;;;;;;10.98;6.65;;;13.00;99.90;;;;;;4829330;29;20672;-96
2021/09/04 03:11:15;;;;;;;13.38;6.38;;;12.90;99.90;;;;;;4813892;29;20187;-95
2021/09/04 03:13:42;;;;;;;12.13;5.88;;;;;;;;;;4829124;29;20194;-96
2021/09/04 03:16:07;;;;;;;10.70;6.30;;;12.80;99.90;;;;;;4828960;29;20194;-96
2021/09/04 03:18:33;;;;;;;9.85;5.45;;;;;;;;;;4819836;29;20188;-96
2021/09/04 03:20:59;;;;;;;9.02;4.80;;;12.70;99.90;;;;;;4864552;24;20274;-96
2021/09/04 03:23:25;;;;;;;12.93;5.70;;;;;;;;;;4852617;29;20186;-94
2021/09/04 03:25:53;;;;;;;8.10;4.82;;;12.60;99.90;;;;;;4875647;29;20217;-96
2021/09/04 03:28:19;;;;;;;13.90;5.60;;;12.40;99.90;;;;;;5219027;23;20259;-96
2021/09/04 03:30:45;;;;;;;6.63;4.63;;;;;;;;;;4923933;29;20169;-96
2021/09/04 03:33:11;;;;;;;6.53;4.00;;;12.50;99.90;;;;;;4905480;29;20181;-96
2021/09/04 03:35:43;;;;;;;6.93;4.20;;;12.50;99.90;;;;;;4906599;29;20705;-96
2021/09/04 03:43:20;;;;;;;9.05;4.20;;;12.40;99.90;;;;;;5465343;23;20478;-91
2021/09/04 03:45:46;;;;;;;7.57;4.13;;;12.10;99.90;;;;;;4947785;23;20316;-90
2021/09/04 03:48:14;;;;;;;7.35;4.07;;;12.30;99.90;;;;;;4941388;28;20245;-94
2021/09/04 03:50:43;;;;;;;6.05;4.20;;;13.10;99.90;;;;;;4931900;28;20248;-96
2021/09/04 03:53:09;;;;;;;10.90;4.88;;;12.70;99.90;;;;;;4924809;29;20184;-95
2021/09/04 03:55:35;;;;;;;8.82;4.13;;;;;;;;;;4909165;29;20279;-95
2021/09/04 03:58:01;;;;;;;11.45;4.43;;;12.20;99.90;;;;;;4907319;29;20188;-96
2021/09/04 04:00:26;;;;;;;6.97;4.10;;;12.10;99.90;;;;;;4888171;29;20752;-96
2021/09/04 04:02:52;;;;;;;7.80;3.90;;;;;;;;;;4919903;29;20227;-96
2021/09/04 04:05:18;;;;;;;6.65;4.60;;;12.10;99.90;;;;;;4902136;29;20328;-95
2021/09/04 04:07:44;;;;;;;7.25;4.28;;;12.10;99.90;;;;;;4886487;29;20275;-96
2021/09/04 04:10:10;;;;;;;8.18;4.38;;;12.50;99.90;;;;;;4886482;29;20184;-94
2021/09/04 04:12:36;;;;;;;10.52;4.63;;;12.00;99.90;;;;;;4919501;29;20184;-95
2021/09/04 04:15:02;;;;;;;7.25;4.78;;;11.90;99.90;;;;;;4920344;29;20180;-96
2021/09/04 04:17:27;;;;;;;10.23;5.15;;;12.00;99.90;;;;;;4902656;29;20188;-96
2021/09/04 04:19:53;;;;;;;9.80;4.93;;;;;;;;;;4902264;29;20211;-95
2021/09/04 04:22:22;;;;;;;12.50;5.00;;;11.90;99.90;;;;;;4901766;29;20240;-94
2021/09/04 04:24:47;;;;;;;8.85;5.10;;;11.80;99.90;;;;;;4902379;29;20188;-94
2021/09/04 04:27:13;;;;;;;8.43;4.82;;;11.60;99.90;;;;;;4901833;29;20700;-95
2021/09/04 04:29:39;;;;;;;8.75;5.07;;;10.80;99.90;;;;;;4902022;29;20193;-94
2021/09/04 04:32:05;;;;;;;8.75;4.80;;;;;;;;;;4891571;29;20184;-96
2021/09/04 04:34:31;;;;;;;9.43;4.80;;;10.20;99.90;;;;;;4926918;29;20235;-95
2021/09/04 04:36:59;;;;;;;15.38;5.10;;;11.90;99.90;;;;;;4906943;29;20193;-95
2021/09/04 04:39:25;;;;;;;12.18;5.97;;;12.00;99.90;;;;;;4887283;29;20185;-95
2021/09/04 04:41:50;;;;;;;11.80;6.40;;;12.00;99.90;;;;;;4919240;29;20694;-94
2021/09/04 04:44:16;;;;;;;14.18;6.30;;;;;;;;;;4886640;29;20177;-95
2021/09/04 04:46:42;;;;;;;12.50;6.53;;;12.00;99.90;;;;;;4904047;29;20220;-94
2021/09/04 04:49:08;;;;;;;12.32;5.57;;;12.00;99.90;;;;;;4899215;28;20183;-95
2021/09/04 04:51:35;;;;;;;17.45;6.47;;;11.90;99.90;;;;;;4905373;29;20760;-92
2021/09/04 04:54:02;;;;;;;14.20;6.32;;;11.90;99.90;;;;;;4904996;29;20180;-95
2021/09/04 04:56:28;;;;;;;10.90;5.68;;;12.00;99.90;;;;;;4909157;29;20204;-95
2021/09/04 04:58:54;;;;;;;9.18;6.03;;;11.90;99.90;;;;;;4949305;23;20243;-96
2021/09/04 05:01:19;;;;;;;11.73;6.20;;;12.00;99.90;;;;;;4925587;29;20198;-93
2021/09/04 05:03:45;;;;;;;12.98;6.13;;;12.00;99.90;;;;;;4890116;29;20180;-95
2021/09/04 05:06:11;;;;;;;13.05;5.57;;;12.00;99.90;;;;;;4909162;29;20226;-96
2021/09/04 05:08:37;;;;;;;12.02;6.05;;;12.00;99.90;;;;;;4923120;29;20487;-93
2021/09/04 05:11:02;;;;;;;9.93;6.07;;;12.00;99.90;;;;;;4926782;29;20656;-94
2021/09/04 05:13:28;;;;;;;10.10;5.03;;;12.00;99.90;;;;;;4897715;29;20327;-94
2021/09/04 05:15:53;;;;;;;9.25;4.85;;;12.00;99.90;;;;;;4907230;29;20215;-93
2021/09/04 05:18:19;;;;;;;9.60;5.13;;;;;;;;;;4919553;29;20586;-92
2021/09/04 05:20:46;;;;;;;7.07;3.72;;;12.00;99.90;;;;;;4919922;29;20180;-93
2021/09/04 05:23:17;;;;;;;9.05;5.00;;;12.00;99.90;;;;;;4901581;29;20199;-93
2021/09/04 05:25:43;;;;;;;14.30;4.10;;;12.00;99.90;;;;;;4938677;29;20581;-93
2021/09/04 05:28:11;;;;;;;8.00;4.55;;;;;;;;;;4896998;29;20224;-94
2021/09/04 05:35:53;;;;;;;5.35;2.83;;;12.20;99.90;;;;;;4921775;29;20680;-96
2021/09/04 05:38:18;;;;;;;3.90;2.40;;;12.20;99.90;;;;;;4902207;29;20188;-93
2021/09/04 05:40:44;;;;;;;6.80;2.88;;;;;;;;;;4885745;29;20184;-92
2021/09/04 05:43:10;;;;;;;7.97;3.65;;;12.30;99.90;;;;;;4921583;29;20172;-93
2021/09/04 05:45:36;;;;;;;4.95;2.65;;;;;;;;;;4921453;29;20219;-92
2021/09/04 05:48:04;;;;;;;6.20;2.67;;;12.30;99.90;;;;;;4888840;29;20196;-93
2021/09/04 05:50:30;;;;;;;5.78;2.78;;;12.30;99.90;;;;;;4902604;29;20547;-95
2021/09/04 05:52:56;;;;;;;12.18;3.03;;;12.20;99.90;;;;;;4896453;29;20185;-93
2021/09/04 05:55:22;;;;;;;8.00;2.83;;;;;;;;;;4883394;29;20185;-96
2021/09/04 05:58:05;;;;;;;5.70;2.75;;;12.40;99.90;;;;;;4884981;29;20280;-93
2021/09/04 06:00:31;;;;;;;5.25;2.60;;;13.50;99.90;;;;;;4869577;29;20185;-95
2021/09/04 06:02:57;;;;;;;11.18;3.50;;;12.10;99.90;;;;;;4882885;29;20181;-94
2021/09/04 06:05:26;;;;;;;8.07;3.33;;;12.60;99.90;;;;;;4882911;29;20215;-94
2021/09/04 06:07:52;;;;;;;4.72;2.35;;;12.70;99.90;;;;;;4884142;29;20188;-94
2021/09/04 06:10:17;;;;;;;7.22;2.90;;;12.70;99.90;;;;;;4887625;29;20570;-92
2021/09/04 06:12:43;;;;;;;5.50;3.20;;;;;;;;;;4902791;29;20784;-93
2021/09/04 06:15:09;;;;;;;10.00;3.30;;;12.80;99.90;;;;;;4871091;29;20189;-93
2021/09/04 06:17:35;;;;;;;4.18;2.55;;;;;;;;;;4886201;29;20177;-92
2021/09/04 06:20:01;;;;;;;8.25;2.55;;;12.90;99.90;;;;;;4889130;29;20214;-93
2021/09/04 06:22:27;;;;;;;4.97;2.75;;;;;;;;;;4887599;29;20181;-92
2021/09/04 06:24:53;;;;;;;5.38;2.67;;;13.00;99.90;;;;;;4888702;29;20198;-93
2021/09/04 06:27:19;;;;;;;4.35;2.47;;;12.90;99.90;;;;;;4891522;29;20296;-93
2021/09/04 06:29:45;;;;;;;6.75;3.10;;;;;;;;;;4893630;29;20754;-94
2021/09/04 06:32:11;;;;;;;5.20;2.35;;;12.70;99.90;;;;;;4910887;29;20186;-92
2021/09/04 06:34:37;;;;;;;5.10;2.67;;;12.90;99.90;;;;;;4875557;29;20667;-95
2021/09/04 06:37:03;;;;;;;5.38;2.33;;;13.00;99.90;;;;;;4886447;29;20181;-91
2021/09/04 06:39:28;;;;;;;3.60;2.00;;;12.90;99.90;;;;;;4887707;29;20177;-91
2021/09/04 06:41:55;;;;;;;4.50;2.05;;;;;;;;;;4913081;29;20182;-90
2021/09/04 06:44:20;;;;;;;3.83;2.13;;;13.10;99.90;;;;;;4905973;29;20185;-90
2021/09/04 06:46:49;;;;;;;7.38;2.70;;;;;;;;;;4887592;29;20260;-91
2021/09/04 06:49:15;;;;;;;8.70;2.20;;;13.20;99.90;;;;;;4902645;29;20196;-89
2021/09/04 06:51:43;;;;;;;10.10;2.10;;;13.40;99.90;;;;;;4904008;29;20185;-93
2021/09/04 06:54:09;;;;;;;4.80;2.13;;;13.40;99.90;;;;;;4899316;29;20649;-92
2021/09/04 06:56:35;;;;;;;4.00;1.92;;;13.40;99.90;;;;;;4885181;29;20185;-91
2021/09/04 06:59:01;;;;;;;5.32;1.90;;;13.90;99.90;;;;;;4870414;29;20185;-92
2021/09/04 07:01:27;;;;;;;4.18;2.40;;;;;;;;;;4885459;29;20181;-91
2021/09/04 07:03:53;;;;;;;6.72;3.08;;;13.70;99.90;;;;;;4902080;29;20186;-90
2021/09/04 07:06:20;;;;;;;3.85;2.60;;;13.80;99.90;;;;;;4883947;29;20224;-91
2021/09/04 07:08:46;;;;;;;8.70;2.60;;;14.10;99.90;;;;;;4884792;29;20185;-91
2021/09/04 07:11:12;;;;;;;4.97;2.10;;;14.00;99.90;;;;;;4871421;29;20293;-86
2021/09/04 07:13:38;;;;;;;4.38;1.70;;;;;;;;;;4885323;29;20272;-88
2021/09/04 07:16:04;;;;;;;4.97;1.42;;;14.10;99.90;;;;;;4869691;29;20344;-90
2021/09/04 07:18:30;;;;;;;4.95;2.10;;;13.30;99.90;;;;;;4869367;29;20248;-90
2021/09/04 07:20:56;;;;;;;4.78;1.80;;;14.10;99.90;;;;;;4900656;29;20186;-90
2021/09/04 07:23:22;;;;;;;4.50;1.67;;;14.20;99.90;;;;;;4879228;29;20193;-88
2021/09/04 07:25:47;;;;;;;6.28;1.52;;;13.50;99.90;;;;;;4895732;29;20227;-89
2021/09/04 07:28:13;;;;;;;2.63;1.50;;;;;;;;;;4888497;29;20173;-89
2021/09/04 07:30:39;;;;;;;6.78;1.52;;;14.30;99.90;;;;;;4894098;29;20189;-88
2021/09/04 07:33:05;;;;;;;4.28;2.75;;;14.60;99.90;;;;;;4884904;29;20218;-88
2021/09/04 07:35:31;;;;;;;3.55;1.73;;;14.50;99.90;;;;;;4868634;29;20236;-88
2021/09/04 07:37:56;;;;;;;3.38;2.00;;;14.50;99.90;;;;;;4884284;29;20269;-87
2021/09/04 07:40:23;;;;;;;3.40;1.60;;;14.50;99.90;;;;;;4868297;29;20213;-88
2021/09/04 07:42:49;;;;;;;3.38;0.95;;;14.50;99.90;;;;;;4867388;29;20185;-90
2021/09/04 07:45:15;;;;;;;5.03;1.40;;;14.60;99.90;;;;;;4883473;29;20524;-88
2021/09/04 07:47:41;;;;;;;2.13;1.25;;;14.60;99.90;;;;;;4899095;29;20268;-89
2021/09/04 07:50:07;;;;;;;1.42;1.10;;;14.60;99.90;;;;;;4867609;29;20662;-87
2021/09/04 07:52:33;;;;;;;4.10;1.20;;;14.80;99.90;;;;;;4882454;29;20272;-88
2021/09/04 07:54:59;;;;;;;1.20;1.00;;;;;;;;;;4898847;29;20256;-88
2021/09/04 07:57:25;;;;;;;2.03;1.05;;;14.90;99.90;;;;;;4883200;29;20232;-90
2021/09/04 07:59:52;;;;;;;2.25;1.38;;;15.10;99.90;;;;;;4882735;29;20281;-90
2021/09/04 08:02:18;;;;;;;4.18;1.38;;;15.00;99.90;;;;;;4882802;29;20666;-88
2021/09/04 08:04:44;;;;;;;2.78;1.80;;;15.10;99.90;;;;;;4866494;29;20194;-88
2021/09/04 08:07:10;;;;;;;7.88;1.27;;;15.30;99.90;;;;;;4882645;29;20234;-88
2021/09/04 08:09:36;;;;;;;5.93;1.40;;;;;;;;;;4882483;29;20190;-89
2021/09/04 08:12:02;;;;;;;2.55;1.33;;;15.20;99.90;;;;;;4866718;29;20185;-88
2021/09/04 08:14:28;;;;;;;2.90;0.90;;;;;;;;;;4883003;29;20277;-89
2021/09/04 08:16:53;;;;;;;2.22;1.23;;;15.20;99.90;;;;;;4899801;29;20189;-88
2021/09/04 08:19:19;;;;;;;4.28;1.13;;;15.20;99.90;;;;;;4918445;29;20176;-88
2021/09/04 08:21:45;;;;;;;4.57;1.40;;;15.40;99.90;;;;;;4900917;29;20228;-89
2021/09/04 08:24:14;;;;;;;5.57;2.58;;;15.20;99.90;;;;;;4920020;29;20586;-89
2021/09/04 08:26:40;;;;;;;6.65;3.58;;;16.00;99.90;;;;;;4872175;29;20220;-90
2021/09/04 08:29:06;;;;;;;5.40;1.35;;;;;;;;;;4902246;29;20190;-89
2021/09/04 08:31:31;;;;;;;5.18;1.73;;;15.40;99.90;;;;;;4897769;29;20969;-87
2021/09/04 08:33:57;;;;;;;1.98;1.00;;;15.40;99.90;;;;;;4882791;29;20237;-89
2021/09/04 08:36:23;;;;;;;6.80;1.88;;;;;;;;;;4883890;29;20185;-90
2021/09/04 08:38:49;;;;;;;4.10;2.15;;;15.40;99.90;;;;;;4882309;29;20280;-90
2021/09/04 08:41:16;;;;;;;4.60;2.50;;;15.60;99.90;;;;;;4881164;29;20280;-89
2021/09/04 08:43:41;;;;;;;7.03;1.25;;;15.80;99.90;;;;;;4865202;29;20185;-92
2021/09/04 08:46:08;;;;;;;7.25;5.10;;;;;;;;;;4895390;29;20224;-88
2021/09/04 08:48:36;;;;;;;4.38;1.70;;;15.70;99.90;;;;;;4895654;29;20190;-89
2021/09/04 08:51:02;;;;;;;2.58;1.23;;;15.80;99.90;;;;;;4880877;29;20185;-89
2021/09/04 08:53:28;;;;;;;5.55;1.90;;;;;;;;;;4880745;29;20203;-89
2021/09/04 08:55:54;;;;;;;11.00;3.40;;;15.80;99.90;;;;;;4900742;29;20200;-90
2021/09/04 08:58:19;;;;;;;4.50;1.13;;;15.90;99.90;;;;;;4901232;29;20180;-89
2021/09/04 09:00:47;;;;;;;3.58;0.80;;;;;;;;;;4901359;29;20204;-89
2021/09/04 09:03:25;;;;;;;2.38;1.42;;;15.90;99.90;;;;;;4885785;29;20243;-89
2021/09/04 09:05:52;;;;;;;2.15;1.30;;;15.80;99.90;;;;;;4890796;29;20201;-89
2021/09/04 09:08:23;;;;;;;2.03;1.15;;;15.80;99.90;;;;;;4880841;29;20196;-90
2021/09/04 09:10:51;;;;;;;11.07;5.65;;;15.90;99.90;;;;;;4881614;29;20169;-88
2021/09/04 09:13:21;;;;;;;1.20;0.95;;;16.00;99.90;;;;;;4850456;29;20185;-89
2021/09/04 09:15:48;;;;;;;3.95;1.10;;;16.10;99.90;;;;;;4850730;29;20208;-89
2021/09/04 09:18:17;;;;;;;2.35;1.13;;;16.00;99.90;;;;;;4880588;29;20196;-89
2021/09/04 09:21:04;;;;;;;3.15;1.10;;;16.10;99.90;;;;;;4880707;29;20212;-88
2021/09/04 09:23:30;;;;;;;3.22;1.50;;;16.60;99.90;;;;;;4882687;29;20185;-88
2021/09/04 09:26:06;;;;;;;1.85;0.90;;;16.00;99.90;;;;;;4881729;29;20217;-90
2021/09/04 09:28:32;;;;;;;1.73;0.90;;;15.90;99.90;;;;;;4881259;29;20195;-89
2021/09/04 09:30:58;;;;;;;5.75;2.30;;;16.00;99.90;;;;;;4866381;29;20190;-89
2021/09/04 09:33:27;;;;;;;1.70;1.10;;;16.20;99.90;;;;;;4866405;29;20276;-89
2021/09/04 09:35:55;;;;;;;4.57;1.08;;;16.10;99.90;;;;;;4899035;29;20197;-89
2021/09/04 09:38:29;;;;;;;1.88;0.90;;;15.90;99.90;;;;;;4882046;29;20185;-88
2021/09/04 09:40:56;;;;;;;1.23;0.75;;;15.80;99.90;;;;;;4866422;29;20219;-87
2021/09/04 09:43:29;;;;;;;1.67;1.33;;;15.90;99.90;;;;;;4899978;29;20178;-86
2021/09/04 09:46:00;;;;;;;2.42;0.98;;;15.90;99.90;;;;;;4885419;29;20224;-90
2021/09/04 09:48:28;;;;;;;1.15;0.80;;;16.00;99.90;;;;;;4870039;29;20212;-87
2021/09/04 09:50:56;;;;;;;2.50;1.60;;;16.30;99.90;;;;;;4870365;29;20185;-87
2021/09/04 09:53:23;;;;;;;3.15;0.82;;;16.60;99.90;;;;;;4884821;29;20197;-87
2021/09/04 09:55:50;;;;;;;2.53;1.60;;;16.30;99.90;;;;;;4884920;29;20188;-88
2021/09/04 09:58:17;;;;;;;2.33;1.15;;;16.30;99.90;;;;;;4902188;29;20264;-89
2021/09/04 10:00:44;;;;;;;1.52;1.00;;;16.30;99.90;;;;;;4883710;29;20260;-89
2021/09/04 10:03:12;;;;;;;4.25;1.60;;;16.50;99.90;;;;;;4867870;29;20241;-88
2021/09/04 10:05:38;;;;;;;2.38;1.20;;;16.60;99.90;;;;;;4884132;29;20267;-89
2021/09/04 10:08:05;;;;;;;1.48;1.25;;;16.40;99.90;;;;;;4902220;29;20377;-89
2021/09/04 10:10:38;;;;;;;5.13;1.08;;;16.40;99.90;;;;;;4884464;29;20205;-89
2021/09/04 10:13:05;;;;;;;3.67;1.25;;;16.50;99.90;;;;;;4892826;29;20628;-88
2021/09/04 10:15:34;;;;;;;2.38;1.10;;;16.70;99.90;;;;;;4892113;29;20177;-90
2021/09/04 10:18:02;;;;;;;2.47;1.33;;;16.50;99.90;;;;;;4895604;29;20187;-89
2021/09/04 10:20:30;;;;;;;8.00;2.85;;;16.60;99.90;;;;;;4894923;29;20180;-91
2021/09/04 10:22:58;;;;;;;7.78;1.45;;;16.60;99.90;;;;;;4875026;29;20193;-90
2021/09/04 10:25:27;;;;;;;5.65;1.10;;;16.70;99.90;;;;;;4891816;29;20189;-90
2021/09/04 10:27:57;;;;;;;4.63;2.40;;;16.90;99.90;;;;;;4869959;29;20595;-90
2021/09/04 10:30:26;;;;;;;2.08;0.90;;;17.10;99.90;;;;;;4886320;29;20653;-89
2021/09/04 10:32:59;;;;;;;2.95;1.13;;;17.30;99.90;;;;;;4905797;29;20207;-89
2021/09/04 10:35:48;;;;;;;1.83;1.20;;;17.50;99.90;;;;;;4883572;29;20638;-89
2021/09/04 10:38:20;;;;;;;2.83;1.15;;;17.30;99.80;;;;;;4880323;29;20264;-90
2021/09/04 10:40:48;;;;;;;1.23;0.90;;;17.30;99.90;;;;;;4878816;29;20257;-91
2021/09/04 10:43:19;;;;;;;1.38;0.80;;;17.40;99.90;;;;;;4890972;29;20188;-88
2021/09/04 10:45:49;;;;;;;4.53;1.98;;;17.40;99.90;;;;;;4889686;29;21080;-90
2021/09/04 10:48:18;;;;;;;3.55;0.98;;;17.40;99.90;;;;;;4888505;29;20257;-91
2021/09/04 10:51:01;;;;;;;6.15;1.25;;;17.10;99.60;;;;;;4858864;29;20702;-89
2021/09/04 10:53:49;;;;;;;4.97;1.27;;;16.90;98.90;;;;;;4886880;29;20212;-90
2021/09/04 10:56:25;;;;;;;1.52;0.90;;;17.20;99.30;;;;;;4858417;29;20545;-90
2021/09/04 10:58:52;;;;;;;1.55;0.90;;;17.30;99.80;;;;;;4892258;29;20642;-89
2021/09/04 11:01:28;;;;;;;4.28;0.80;;;17.30;98.00;;;;;;4878635;29;20185;-89
2021/09/04 11:03:56;;;;;;;2.17;0.90;;;17.40;99.90;;;;;;4864119;29;20657;-89
2021/09/04 11:06:23;;;;;;;1.83;1.05;;;17.60;98.60;;;;;;4889404;29;20216;-87
2021/09/04 11:08:50;;;;;;;1.50;0.88;;;17.60;99.00;;;;;;4885595;29;20186;-88
2021/09/04 11:11:37;;;;;;;3.47;1.23;;;17.50;99.10;;;;;;4885560;29;20178;-89
2021/09/04 11:14:22;;;;;;;1.38;0.73;;;17.10;98.60;;;;;;4887150;29;20256;-90
2021/09/04 11:16:54;;;;;;;2.78;1.13;;;17.10;98.90;;;;;;4894695;29;20290;-89
2021/09/04 11:19:34;;;;;;;0.95;0.68;;;17.50;98.40;;;;;;4880282;29;20209;-88
2021/09/04 11:22:15;;;;;;;3.15;1.02;;;17.50;97.70;;;;;;4880441;29;20627;-89
2021/09/04 11:24:43;;;;;;;2.58;0.90;;;17.40;96.90;;;;;;4889262;29;20272;-89
2021/09/04 11:27:19;;;;;;;2.25;1.17;;;17.40;96.50;;;;;;4856501;29;20217;-88
2021/09/04 11:29:52;;;;;;;4.03;1.15;;;18.00;95.00;;;;;;4891216;29;20247;-90
2021/09/04 11:32:32;;;;;;;1.80;1.00;;;17.70;94.80;;;;;;4858672;29;20189;-91
2021/09/04 11:35:03;;;;;;;1.30;1.00;;;17.60;94.20;;;;;;4903106;29;20651;-89
2021/09/04 11:37:40;;;;;;;2.45;0.85;;;17.50;95.10;;;;;;4889461;29;20235;-89
2021/09/04 11:40:15;;;;;;;2.72;0.90;;;17.40;94.30;;;;;;4891756;29;20232;-90
2021/09/04 11:42:45;;;;;;;1.17;0.95;;;17.30;94.60;;;;;;4897816;29;20183;-89
2021/09/04 11:45:13;;;;;;;1.63;0.90;;;17.30;93.80;;;;;;4891771;29;20183;-89
2021/09/04 11:47:43;;;;;;;1.60;0.98;;;17.30;93.00;;;;;;4893937;29;20204;-88
2021/09/04 11:50:18;;;;;;;1.63;1.02;;;17.20;92.40;;;;;;4896295;29;20181;-88
2021/09/04 11:52:44;;;;;;;6.13;2.97;;;17.10;93.60;;;;;;4870675;29;20200;-88
2021/09/04 11:55:12;;;;;;;4.30;1.10;;;17.10;93.30;;;;;;4867392;29;20186;-89
2021/09/04 11:57:42;;;;;;;4.45;0.90;;;17.10;93.80;;;;;;4882427;29;20215;-90
2021/09/04 12:00:16;;;;;;;2.10;1.02;;;17.00;93.90;;;;;;4906574;29;20174;-90
2021/09/04 12:02:55;;;;;;;3.60;1.60;;;17.20;94.70;;;;;;4889788;29;20191;-88
2021/09/04 12:05:23;;;;;;;4.47;1.20;;;17.30;94.00;;;;;;4890505;29;20682;-88
2021/09/04 12:07:49;;;;;;;1.58;0.63;;;17.40;93.70;;;;;;4893725;29;20212;-88
2021/09/04 12:10:21;;;;;;;1.05;0.80;;;17.40;93.20;;;;;;4886070;29;20176;-88
2021/09/04 12:12:52;;;;;;;3.72;0.80;;;17.40;93.00;;;;;;4900881;29;20195;-88
2021/09/04 12:15:18;;;;;;;3.35;0.93;;;17.40;93.30;;;;;;4898946;29;20713;-88
2021/09/04 12:17:51;;;;;;;2.90;1.10;;;17.50;95.00;;;;;;4899206;29;20219;-88
2021/09/04 12:20:17;;;;;;;0.93;0.80;;;17.60;93.40;;;;;;4899095;29;20168;-89
2021/09/04 12:22:43;;;;;;;2.83;1.10;;;17.60;93.70;;;;;;4881983;29;20240;-88
2021/09/04 12:25:30;;;;;;;1.42;0.90;;;18.10;94.60;;;;;;4882195;29;20272;-88
2021/09/04 12:28:05;;;;;;;1.00;0.70;;;17.70;94.40;;;;;;4892546;29;20638;-89
2021/09/04 12:30:31;;;;;;;1.35;1.10;;;17.80;92.50;;;;;;4918891;29;20259;-89
2021/09/04 12:33:26;;;;;;;1.60;1.42;;;17.90;93.50;;;;;;4887556;29;20247;-91
2021/09/04 12:35:58;;;;;;;1.25;0.70;;;17.90;93.30;;;;;;4899410;29;20246;-89
2021/09/04 12:38:30;;;;;;;3.40;1.90;;;18.30;92.60;;;;;;4901840;29;20180;-88
2021/09/04 12:41:11;;;;;;;2.67;1.10;;;18.40;92.40;;;;;;4900521;29;20180;-88
2021/09/04 12:44:08;;;;;;;3.67;1.50;;;18.40;92.70;;;;;;4916621;29;20161;-89
2021/09/04 12:46:50;;;;;;;1.95;0.90;;;18.40;91.40;;;;;;4899813;29;20303;-93
2021/09/04 12:49:20;;;;;;;1.55;1.17;;;18.10;90.00;;;;;;4884527;29;20230;-89
2021/09/04 12:52:04;;;;;;;2.03;0.63;;;17.90;89.60;;;;;;4899429;29;20721;-89
2021/09/04 12:54:44;;;;;;;2.80;1.20;;;17.40;92.20;;;;;;4897210;29;20200;-89
2021/09/04 12:57:20;;;;;;;2.58;1.20;;;17.80;92.20;;;;;;4897123;29;20623;-89
2021/09/04 12:59:51;;;;;;;1.83;1.25;;;18.20;90.90;;;;;;4879890;29;20184;-89
2021/09/04 13:02:20;;;;;;;1.20;1.08;;;18.40;90.50;;;;;;4880413;29;20283;-88
2021/09/04 13:04:46;;;;;;;1.00;0.90;;;18.80;90.50;;;;;;4896493;29;20180;-88
2021/09/04 13:07:13;;;;;;;1.48;1.20;;;19.00;90.50;;;;;;4896648;29;20220;-89
2021/09/04 13:09:38;;;;;;;2.35;0.80;;;19.10;89.10;;;;;;4896415;29;20200;-89